createdAt,value
2022-09-14T00:00:00.566Z,15.16
2022-09-14T00:01:23.684Z,15.15
2022-09-14T00:02:00.912Z,15.14
2022-09-14T00:03:01.117Z,15.13
2022-09-14T00:04:01.150Z,15.12
2022-09-14T00:05:00.299Z,15.13
2022-09-14T00:06:00.454Z,15.14
2022-09-14T00:07:00.576Z,15.13
2022-09-14T00:08:00.723Z,15.13
2022-09-14T00:09:00.888Z,15.13
2022-09-14T00:10:01.024Z,15.15
2022-09-14T00:11:01.156Z,15.14
2022-09-14T00:12:00.309Z,15.14
2022-09-14T00:13:00.491Z,15.14
2022-09-14T00:14:00.632Z,15.14
2022-09-14T00:15:00.763Z,15.15
2022-09-14T00:16:00.910Z,15.15
2022-09-14T00:17:01.106Z,15.16
2022-09-14T00:18:01.200Z,15.18
2022-09-14T00:19:00.384Z,15.21
2022-09-14T00:20:00.494Z,15.22
2022-09-14T00:21:00.638Z,15.22
2022-09-14T00:22:00.786Z,15.22
2022-09-14T00:23:00.934Z,15.22
2022-09-14T00:24:01.097Z,15.22
2022-09-14T00:25:01.238Z,15.23
2022-09-14T00:26:00.371Z,15.24
2022-09-14T00:27:00.522Z,15.23
2022-09-14T00:28:00.669Z,15.22
2022-09-14T00:29:00.827Z,15.22
2022-09-14T00:30:00.976Z,15.22
2022-09-14T00:31:01.147Z,15.22
2022-09-14T00:32:00.401Z,15.22
2022-09-14T00:33:00.408Z,15.21
2022-09-14T00:34:00.562Z,15.18
2022-09-14T00:35:00.698Z,15.18
2022-09-14T00:36:00.871Z,15.19
2022-09-14T00:37:01.000Z,15.19
2022-09-14T00:38:01.148Z,15.21
2022-09-14T00:39:00.319Z,15.21
2022-09-14T00:40:00.540Z,15.21
2022-09-14T00:41:00.592Z,15.22
2022-09-14T00:42:00.748Z,15.19
2022-09-14T00:43:00.889Z,15.19
2022-09-14T00:44:01.052Z,15.19
2022-09-14T00:45:01.178Z,15.21
2022-09-14T00:46:00.453Z,15.21
2022-09-14T00:47:00.488Z,15.19
2022-09-14T00:48:00.634Z,15.19
2022-09-14T00:49:00.796Z,15.18
2022-09-14T00:50:00.940Z,15.18
2022-09-14T00:51:01.076Z,15.17
2022-09-14T00:52:01.253Z,15.19
2022-09-14T00:53:00.367Z,15.18
2022-09-14T00:54:00.544Z,15.15
2022-09-14T00:55:00.671Z,15.14
2022-09-14T00:56:00.810Z,15.12
2022-09-14T00:57:00.972Z,15.1
2022-09-14T00:58:01.118Z,15.1
2022-09-14T00:59:00.280Z,15.11
2022-09-14T01:00:00.446Z,15.11
2022-09-14T01:01:00.635Z,15.13
2022-09-14T01:02:00.758Z,15.13
2022-09-14T01:03:00.866Z,15.13
2022-09-14T01:04:01.017Z,15.14
2022-09-14T01:05:01.184Z,15.14
2022-09-14T01:06:00.314Z,15.13
2022-09-14T01:07:00.445Z,15.14
2022-09-14T01:08:00.598Z,15.12
2022-09-14T01:09:00.755Z,15.11
2022-09-14T01:10:00.921Z,15.1
2022-09-14T01:11:01.070Z,15.1
2022-09-14T01:12:01.213Z,15.1
2022-09-14T01:13:00.364Z,15.11
2022-09-14T01:14:00.518Z,15.1
2022-09-14T01:15:00.660Z,15.11
2022-09-14T01:16:00.865Z,15.09
2022-09-14T01:17:00.964Z,15.08
2022-09-14T01:18:01.100Z,15.07
2022-09-14T01:20:00.381Z,15.07
2022-09-14T01:21:00.498Z,15.07
2022-09-14T01:22:00.656Z,15.07
2022-09-14T01:23:00.802Z,15.08
2022-09-14T01:24:00.943Z,15.07
2022-09-14T01:25:01.119Z,15.04
2022-09-14T01:26:01.242Z,15.03
2022-09-14T01:27:00.388Z,15.02
2022-09-14T01:28:00.527Z,15.02
2022-09-14T01:29:00.680Z,15.02
2022-09-14T01:30:00.856Z,15.03
2022-09-14T01:31:00.991Z,15.03
2022-09-14T01:32:01.183Z,15.04
2022-09-14T01:33:00.294Z,15.02
2022-09-14T01:34:00.425Z,15.01
2022-09-14T01:35:00.601Z,14.99
2022-09-14T01:36:00.744Z,14.98
2022-09-14T01:37:00.870Z,14.97
2022-09-14T01:38:01.018Z,14.96
2022-09-14T01:39:01.159Z,14.96
2022-09-14T01:40:00.384Z,14.96
2022-09-14T01:41:00.459Z,14.96
2022-09-14T01:42:00.612Z,14.95
2022-09-14T01:43:00.739Z,14.95
2022-09-14T01:44:00.881Z,14.96
2022-09-14T01:45:01.026Z,14.96
2022-09-14T01:46:01.280Z,14.96
2022-09-14T01:47:00.344Z,14.96
2022-09-14T01:48:00.489Z,14.96
2022-09-14T01:49:00.609Z,14.95
2022-09-14T01:50:00.762Z,14.95
2022-09-14T01:51:00.915Z,14.94
2022-09-14T01:52:01.064Z,14.91
2022-09-14T01:53:01.233Z,14.88
2022-09-14T01:54:00.354Z,14.87
2022-09-14T01:55:00.516Z,14.89
2022-09-14T01:56:00.652Z,14.89
2022-09-14T01:57:00.797Z,14.88
2022-09-14T01:58:00.962Z,14.89
2022-09-14T01:59:01.126Z,14.89
2022-09-14T02:00:01.243Z,14.88
2022-09-14T02:01:00.442Z,14.89
2022-09-14T02:02:00.617Z,14.89
2022-09-14T02:03:00.697Z,14.88
2022-09-14T02:04:00.886Z,14.88
2022-09-14T02:05:01.009Z,14.88
2022-09-14T02:06:01.156Z,14.89
2022-09-14T02:07:00.296Z,14.91
2022-09-14T02:08:00.447Z,14.92
2022-09-14T02:09:00.620Z,14.94
2022-09-14T02:10:00.739Z,14.95
2022-09-14T02:11:00.884Z,14.95
2022-09-14T02:12:01.051Z,14.94
2022-09-14T02:13:01.183Z,14.95
2022-09-14T02:14:00.342Z,14.95
2022-09-14T02:15:00.475Z,14.96
2022-09-14T02:16:00.661Z,14.96
2022-09-14T02:17:00.774Z,14.97
2022-09-14T02:18:00.924Z,14.97
2022-09-14T02:19:01.080Z,14.98
2022-09-14T02:20:01.199Z,14.98
2022-09-14T02:21:00.355Z,14.98
2022-09-14T02:22:00.494Z,14.98
2022-09-14T02:23:00.656Z,15
2022-09-14T02:24:00.815Z,14.99
2022-09-14T02:25:00.948Z,14.99
2022-09-14T02:26:01.086Z,14.99
2022-09-14T02:27:01.223Z,14.98
2022-09-14T02:28:00.373Z,14.99
2022-09-14T02:29:00.537Z,14.98
2022-09-14T02:30:00.699Z,14.98
2022-09-14T02:31:00.872Z,14.98
2022-09-14T02:32:00.962Z,14.99
2022-09-14T02:33:01.107Z,15.01
2022-09-14T02:34:00.259Z,15.03
2022-09-14T02:35:00.404Z,15.04
2022-09-14T02:36:00.540Z,15.06
2022-09-14T02:37:00.683Z,15.07
2022-09-14T02:38:00.845Z,15.08
2022-09-14T02:39:00.992Z,15.1
2022-09-14T02:40:01.237Z,15.11
2022-09-14T02:41:00.280Z,15.12
2022-09-14T02:42:00.424Z,15.11
2022-09-14T02:43:00.569Z,15.12
2022-09-14T02:44:00.719Z,15.12
2022-09-14T02:45:00.875Z,15.13
2022-09-14T02:46:01.002Z,15.14
2022-09-14T02:47:01.195Z,15.13
2022-09-14T02:48:00.302Z,15.13
2022-09-14T02:49:00.469Z,15.12
2022-09-14T02:50:00.596Z,15.13
2022-09-14T02:51:00.743Z,15.12
2022-09-14T02:52:00.890Z,15.12
2022-09-14T02:53:01.033Z,15.12
2022-09-14T02:54:01.213Z,15.12
2022-09-14T02:55:00.320Z,15.12
2022-09-14T02:56:00.470Z,15.11
2022-09-14T02:57:00.620Z,15.1
2022-09-14T02:58:00.771Z,15.1
2022-09-14T02:59:00.944Z,15.1
2022-09-14T03:00:01.068Z,15.1
2022-09-14T03:01:01.279Z,15.1
2022-09-14T03:02:00.467Z,15.1
2022-09-14T03:03:00.508Z,15.11
2022-09-14T03:04:00.689Z,15.11
2022-09-14T03:05:00.820Z,15.1
2022-09-14T03:06:00.971Z,15.09
2022-09-14T03:07:01.121Z,15.09
2022-09-14T03:08:00.258Z,15.09
2022-09-14T03:09:00.425Z,15.08
2022-09-14T03:10:00.594Z,15.08
2022-09-14T03:11:00.707Z,15.08
2022-09-14T03:12:00.852Z,15.08
2022-09-14T03:13:01.000Z,15.07
2022-09-14T03:14:01.140Z,15.07
2022-09-14T03:15:00.326Z,15.06
2022-09-14T03:16:00.499Z,15.04
2022-09-14T03:17:00.588Z,15.04
2022-09-14T03:18:00.735Z,15.04
2022-09-14T03:19:00.880Z,15.06
2022-09-14T03:20:01.051Z,15.06
2022-09-14T03:21:01.167Z,15.04
2022-09-14T03:22:00.320Z,15.04
2022-09-14T03:23:00.459Z,15.03
2022-09-14T03:24:00.599Z,15.03
2022-09-14T03:25:00.777Z,15.02
2022-09-14T03:26:00.902Z,15.02
2022-09-14T03:27:01.043Z,15.02
2022-09-14T03:28:01.195Z,15.02
2022-09-14T03:29:00.376Z,15.01
2022-09-14T03:30:00.534Z,15.02
2022-09-14T03:31:00.732Z,15.03
2022-09-14T03:32:00.792Z,15.03
2022-09-14T03:33:00.941Z,15.02
2022-09-14T03:34:01.097Z,15.03
2022-09-14T03:35:01.271Z,15.02
2022-09-14T03:36:00.403Z,15.03
2022-09-14T03:37:00.540Z,15.03
2022-09-14T03:38:00.689Z,15.03
2022-09-14T03:39:00.834Z,15.01
2022-09-14T03:40:01.063Z,15
2022-09-14T03:41:01.133Z,15
2022-09-14T03:42:00.275Z,15
2022-09-14T03:43:00.435Z,15
2022-09-14T03:44:00.566Z,15.02
2022-09-14T03:45:00.744Z,15.02
2022-09-14T03:46:00.897Z,15.01
2022-09-14T03:47:01.086Z,15
2022-09-14T03:48:01.169Z,14.98
2022-09-14T03:49:00.315Z,14.98
2022-09-14T03:50:00.463Z,14.97
2022-09-14T03:51:00.627Z,14.96
2022-09-14T03:52:00.763Z,14.96
2022-09-14T03:53:00.909Z,14.96
2022-09-14T03:54:01.064Z,14.96
2022-09-14T03:55:01.217Z,14.97
2022-09-14T03:56:00.375Z,14.98
2022-09-14T03:57:00.515Z,14.99
2022-09-14T03:58:00.664Z,15
2022-09-14T03:59:00.804Z,15.02
2022-09-14T04:00:00.950Z,15.02
2022-09-14T04:01:01.115Z,15.02
2022-09-14T04:02:01.354Z,15.01
2022-09-14T04:03:00.449Z,15.01
2022-09-14T04:04:00.568Z,15.01
2022-09-14T04:05:00.703Z,15.02
2022-09-14T04:06:00.856Z,15.01
2022-09-14T04:07:01.005Z,15.01
2022-09-14T04:08:01.120Z,15.01
2022-09-14T04:09:00.270Z,15.01
2022-09-14T04:10:00.426Z,15.01
2022-09-14T04:11:00.585Z,15.01
2022-09-14T04:12:00.755Z,15.01
2022-09-14T04:13:00.862Z,15.01
2022-09-14T04:14:01.019Z,15.02
2022-09-14T04:15:01.172Z,15.03
2022-09-14T04:16:00.384Z,15.03
2022-09-14T04:17:00.473Z,15.02
2022-09-14T04:18:01.604Z,15.02
2022-09-14T04:19:00.768Z,15.01
2022-09-14T04:20:00.911Z,15.01
2022-09-14T04:21:05.736Z,15.01
2022-09-14T04:22:01.247Z,15.01
2022-09-14T04:23:00.361Z,15.03
2022-09-14T04:24:14.596Z,15.02
2022-09-14T04:25:00.666Z,15.02
2022-09-14T04:26:00.824Z,15.02
2022-09-14T04:27:00.983Z,15.03
2022-09-14T04:28:19.245Z,15.03
2022-09-14T04:29:00.268Z,15.03
2022-09-14T04:30:00.424Z,15.02
2022-09-14T04:31:00.597Z,15.01
2022-09-14T04:32:00.716Z,15
2022-09-14T04:33:00.856Z,15
2022-09-14T04:34:01.032Z,14.99
2022-09-14T04:35:01.144Z,14.99
2022-09-14T04:36:00.292Z,14.99
2022-09-14T04:37:00.460Z,14.99
2022-09-14T04:38:00.607Z,15
2022-09-14T04:39:00.770Z,15
2022-09-14T04:40:00.957Z,15.02
2022-09-14T04:41:01.035Z,15.03
2022-09-14T04:42:01.207Z,15.04
2022-09-14T04:43:00.322Z,15.04
2022-09-14T04:44:00.488Z,15.06
2022-09-14T04:45:00.612Z,15.07
2022-09-14T04:46:00.771Z,15.07
2022-09-14T04:47:00.941Z,15.08
2022-09-14T04:48:01.061Z,15.08
2022-09-14T04:49:01.218Z,15.08
2022-09-14T04:50:00.342Z,15.08
2022-09-14T04:52:00.688Z,15.07
2022-09-14T04:53:00.779Z,15.08
2022-09-14T04:54:00.932Z,15.09
2022-09-14T04:55:01.063Z,15.09
2022-09-14T04:56:01.214Z,15.09
2022-09-14T04:57:00.351Z,15.1
2022-09-14T04:58:00.498Z,15.1
2022-09-14T04:59:00.655Z,15.1
2022-09-14T05:00:00.792Z,15.1
2022-09-14T05:01:00.947Z,15.1
2022-09-14T05:02:01.204Z,15.09
2022-09-14T05:03:01.340Z,15.09
2022-09-14T05:04:00.410Z,15.09
2022-09-14T05:05:00.532Z,15.09
2022-09-14T05:06:00.679Z,15.09
2022-09-14T05:07:00.836Z,15.09
2022-09-14T05:08:00.967Z,15.1
2022-09-14T05:09:01.153Z,15.1
2022-09-14T05:10:01.252Z,15.09
2022-09-14T05:11:00.412Z,15.08
2022-09-14T05:12:00.552Z,15.08
2022-09-14T05:13:00.711Z,15.07
2022-09-14T05:14:00.861Z,15.08
2022-09-14T05:15:00.989Z,15.09
2022-09-14T05:16:01.206Z,15.09
2022-09-14T05:17:00.293Z,15.09
2022-09-14T05:18:00.422Z,15.1
2022-09-14T05:19:00.575Z,15.1
2022-09-14T05:20:00.720Z,15.1
2022-09-14T05:21:04.000Z,15.11
2022-09-14T05:22:01.010Z,15.11
2022-09-14T05:23:01.145Z,15.12
2022-09-14T05:24:00.297Z,15.13
2022-09-14T05:25:00.445Z,15.12
2022-09-14T05:26:00.617Z,15.12
2022-09-14T05:27:02.225Z,15.12
2022-09-14T05:28:00.897Z,15.12
2022-09-14T05:29:01.051Z,15.13
2022-09-14T05:30:01.204Z,15.12
2022-09-14T05:31:00.391Z,15.13
2022-09-14T05:32:00.526Z,15.13
2022-09-14T05:33:00.651Z,15.13
2022-09-14T05:34:00.803Z,15.14
2022-09-14T05:35:00.957Z,15.14
2022-09-14T05:36:01.108Z,15.15
2022-09-14T05:37:01.274Z,15.15
2022-09-14T05:38:00.396Z,15.16
2022-09-14T05:39:00.542Z,15.16
2022-09-14T05:40:00.771Z,15.17
2022-09-14T05:41:00.868Z,15.18
2022-09-14T05:42:01.029Z,15.19
2022-09-14T05:43:01.159Z,15.21
2022-09-14T05:44:00.299Z,15.22
2022-09-14T05:45:00.459Z,15.21
2022-09-14T05:46:00.644Z,15.19
2022-09-14T05:47:00.782Z,15.22
2022-09-14T05:48:00.912Z,15.23
2022-09-14T05:49:01.064Z,15.24
2022-09-14T05:50:01.209Z,15.25
2022-09-14T05:51:00.348Z,15.26
2022-09-14T05:52:00.521Z,15.26
2022-09-14T05:53:00.643Z,15.26
2022-09-14T05:54:00.797Z,15.27
2022-09-14T05:55:00.952Z,15.27
2022-09-14T05:56:01.098Z,15.29
2022-09-14T05:57:01.277Z,15.3
2022-09-14T05:58:00.393Z,15.31
2022-09-14T05:59:00.607Z,15.32
2022-09-14T06:00:00.682Z,15.32
2022-09-14T06:01:00.837Z,15.34
2022-09-14T06:02:01.050Z,15.36
2022-09-14T06:03:01.163Z,15.37
2022-09-14T06:04:00.282Z,15.37
2022-09-14T06:05:00.461Z,15.37
2022-09-14T06:06:00.564Z,15.39
2022-09-14T06:07:17.929Z,15.4
2022-09-14T06:08:00.874Z,15.41
2022-09-14T06:09:01.024Z,15.43
2022-09-14T06:10:01.144Z,15.44
2022-09-14T06:11:00.304Z,15.45
2022-09-14T06:12:00.464Z,15.45
2022-09-14T06:13:00.593Z,15.45
2022-09-14T06:14:00.740Z,15.46
2022-09-14T06:15:00.882Z,15.47
2022-09-14T06:16:01.026Z,15.47
2022-09-14T06:17:01.190Z,15.48
2022-09-14T06:18:00.318Z,15.51
2022-09-14T06:19:00.459Z,15.52
2022-09-14T06:20:04.350Z,15.53
2022-09-14T06:21:00.751Z,15.54
2022-09-14T06:22:00.924Z,15.56
2022-09-14T06:23:01.042Z,15.56
2022-09-14T06:24:01.189Z,15.57
2022-09-14T06:25:00.336Z,15.58
2022-09-14T06:26:00.488Z,15.58
2022-09-14T06:27:00.633Z,15.59
2022-09-14T06:28:00.784Z,15.6
2022-09-14T06:29:00.931Z,15.6
2022-09-14T06:30:01.101Z,15.61
2022-09-14T06:31:01.220Z,15.63
2022-09-14T06:32:00.353Z,15.65
2022-09-14T06:33:00.524Z,15.67
2022-09-14T06:34:00.650Z,15.68
2022-09-14T06:35:00.879Z,15.69
2022-09-14T06:36:00.932Z,15.7
2022-09-14T06:37:01.113Z,15.7
2022-09-14T06:38:01.267Z,15.71
2022-09-14T06:39:00.399Z,15.72
2022-09-14T06:40:00.579Z,15.73
2022-09-14T06:41:00.695Z,15.73
2022-09-14T06:42:00.835Z,15.73
2022-09-14T06:43:01.010Z,15.75
2022-09-14T06:44:01.131Z,15.75
2022-09-14T06:45:00.291Z,15.75
2022-09-14T06:46:00.450Z,15.76
2022-09-14T06:47:00.597Z,15.77
2022-09-14T06:48:00.765Z,15.76
2022-09-14T06:49:00.895Z,15.76
2022-09-14T06:50:01.035Z,15.77
2022-09-14T06:51:01.182Z,15.77
2022-09-14T06:52:00.342Z,15.77
2022-09-14T06:53:00.478Z,15.77
2022-09-14T06:54:00.648Z,15.78
2022-09-14T06:55:00.785Z,15.78
2022-09-14T06:56:00.935Z,15.78
2022-09-14T06:57:01.089Z,15.8
2022-09-14T06:58:01.272Z,15.8
2022-09-14T06:59:00.394Z,15.8
2022-09-14T07:00:00.544Z,15.8
2022-09-14T07:01:00.692Z,15.8
2022-09-14T07:02:00.828Z,15.81
2022-09-14T07:03:01.077Z,15.81
2022-09-14T07:04:01.123Z,15.82
2022-09-14T07:05:00.262Z,15.83
2022-09-14T07:06:00.411Z,15.84
2022-09-14T07:07:00.547Z,15.84
2022-09-14T07:08:00.723Z,15.86
2022-09-14T07:09:00.867Z,15.86
2022-09-14T07:10:00.993Z,15.87
2022-09-14T07:11:01.143Z,15.88
2022-09-14T07:12:00.290Z,15.88
2022-09-14T07:13:00.440Z,15.89
2022-09-14T07:14:00.602Z,15.91
2022-09-14T07:15:00.732Z,15.93
2022-09-14T07:16:00.881Z,15.95
2022-09-14T07:17:01.022Z,15.97
2022-09-14T07:18:01.172Z,15.98
2022-09-14T07:19:00.336Z,15.99
2022-09-14T07:20:00.572Z,16
2022-09-14T07:21:05.275Z,16.01
2022-09-14T07:22:00.750Z,16.02
2022-09-14T07:23:00.901Z,16.03
2022-09-14T07:24:01.065Z,16.04
2022-09-14T07:25:01.218Z,16.05
2022-09-14T07:26:00.347Z,16.06
2022-09-14T07:27:00.486Z,16.06
2022-09-14T07:28:00.639Z,16.07
2022-09-14T07:29:00.787Z,16.07
2022-09-14T07:30:00.949Z,16.07
2022-09-14T07:31:01.235Z,16.07
2022-09-14T07:32:01.221Z,16.07
2022-09-14T07:33:00.365Z,16.08
2022-09-14T07:34:00.511Z,16.07
2022-09-14T07:35:00.664Z,16.08
2022-09-14T07:36:00.819Z,16.08
2022-09-14T07:37:00.963Z,16.1
2022-09-14T07:38:01.095Z,16.11
2022-09-14T07:39:01.239Z,16.12
2022-09-14T07:40:00.471Z,16.13
2022-09-14T07:41:00.556Z,16.14
2022-09-14T07:42:00.683Z,16.15
2022-09-14T07:43:00.841Z,16.16
2022-09-14T07:44:00.985Z,16.16
2022-09-14T07:45:01.130Z,16.17
2022-09-14T07:46:00.340Z,16.18
2022-09-14T07:47:00.443Z,16.18
2022-09-14T07:48:00.574Z,16.18
2022-09-14T07:49:00.719Z,16.18
2022-09-14T07:50:00.886Z,16.19
2022-09-14T07:51:01.027Z,16.18
2022-09-14T07:52:01.177Z,16.19
2022-09-14T07:53:00.344Z,16.21
2022-09-14T07:54:00.480Z,16.24
2022-09-14T07:55:00.624Z,16.26
2022-09-14T07:56:00.775Z,16.26
2022-09-14T07:57:00.919Z,16.26
2022-09-14T07:58:01.086Z,16.29
2022-09-14T07:59:23.802Z,16.31
2022-09-14T08:00:00.386Z,16.32
2022-09-14T08:01:00.589Z,16.33
2022-09-14T08:02:00.777Z,16.35
2022-09-14T08:03:00.814Z,16.36
2022-09-14T08:04:05.194Z,16.37
2022-09-14T08:05:01.123Z,16.39
2022-09-14T08:06:00.250Z,16.4
2022-09-14T08:07:00.400Z,16.43
2022-09-14T08:08:00.541Z,16.47
2022-09-14T08:09:00.696Z,16.48
2022-09-14T08:10:00.881Z,16.49
2022-09-14T08:11:00.989Z,16.49
2022-09-14T08:12:01.138Z,16.49
2022-09-14T08:13:00.288Z,16.49
2022-09-14T08:14:00.443Z,16.49
2022-09-14T08:15:00.616Z,16.49
2022-09-14T08:16:00.749Z,16.49
2022-09-14T08:17:00.966Z,16.5
2022-09-14T08:18:01.029Z,16.51
2022-09-14T08:19:01.175Z,16.51
2022-09-14T08:20:00.336Z,16.51
2022-09-14T08:21:00.470Z,16.52
2022-09-14T08:22:00.614Z,16.51
2022-09-14T08:23:00.773Z,16.51
2022-09-14T08:24:00.937Z,16.52
2022-09-14T08:25:01.091Z,16.51
2022-09-14T08:26:01.231Z,16.52
2022-09-14T08:27:00.375Z,16.54
2022-09-14T08:28:00.513Z,16.54
2022-09-14T08:29:00.647Z,16.55
2022-09-14T08:30:00.826Z,16.55
2022-09-14T08:31:00.952Z,16.56
2022-09-14T08:32:01.162Z,16.55
2022-09-14T08:33:01.981Z,16.56
2022-09-14T08:34:00.390Z,16.57
2022-09-14T08:35:00.567Z,16.56
2022-09-14T08:36:00.692Z,16.57
2022-09-14T08:37:00.844Z,16.56
2022-09-14T08:38:00.994Z,16.56
2022-09-14T08:39:01.112Z,16.56
2022-09-14T08:40:00.372Z,16.55
2022-09-14T08:41:00.418Z,16.55
2022-09-14T08:42:00.559Z,16.55
2022-09-14T08:43:00.713Z,16.56
2022-09-14T08:44:00.846Z,16.56
2022-09-14T08:45:00.983Z,16.56
2022-09-14T08:46:01.318Z,16.56
2022-09-14T08:47:00.283Z,16.56
2022-09-14T08:48:00.436Z,16.57
2022-09-14T08:49:00.574Z,16.58
2022-09-14T08:50:00.715Z,16.58
2022-09-14T08:51:00.865Z,16.58
2022-09-14T08:52:01.035Z,16.59
2022-09-14T08:53:01.161Z,16.59
2022-09-14T08:54:00.315Z,16.6
2022-09-14T08:55:00.465Z,16.61
2022-09-14T08:56:00.619Z,16.61
2022-09-14T08:57:00.784Z,16.61
2022-09-14T08:58:00.917Z,16.62
2022-09-14T08:59:01.064Z,16.63
2022-09-14T09:00:01.222Z,16.63
2022-09-14T09:01:00.419Z,16.64
2022-09-14T09:02:00.518Z,16.65
2022-09-14T09:03:00.646Z,16.65
2022-09-14T09:04:00.831Z,16.66
2022-09-14T09:05:00.937Z,16.65
2022-09-14T09:06:01.088Z,16.67
2022-09-14T09:07:01.255Z,16.67
2022-09-14T09:08:00.365Z,16.66
2022-09-14T09:09:00.517Z,16.66
2022-09-14T09:10:00.688Z,16.66
2022-09-14T09:11:00.821Z,16.66
2022-09-14T09:12:00.981Z,16.66
2022-09-14T09:13:01.099Z,16.66
2022-09-14T09:14:01.256Z,16.67
2022-09-14T09:15:00.397Z,16.66
2022-09-14T09:16:00.599Z,16.67
2022-09-14T09:17:00.735Z,16.69
2022-09-14T09:18:00.853Z,16.7
2022-09-14T09:19:01.010Z,16.71
2022-09-14T09:20:01.151Z,16.73
2022-09-14T09:21:00.309Z,16.74
2022-09-14T09:22:00.489Z,16.76
2022-09-14T09:23:00.604Z,16.77
2022-09-14T09:24:00.758Z,16.77
2022-09-14T09:25:00.895Z,16.78
2022-09-14T09:26:01.051Z,16.78
2022-09-14T09:27:01.211Z,16.78
2022-09-14T09:28:00.345Z,16.79
2022-09-14T09:29:00.483Z,16.8
2022-09-14T09:30:00.622Z,16.81
2022-09-14T09:31:00.804Z,16.82
2022-09-14T09:32:01.014Z,16.82
2022-09-14T09:33:01.076Z,16.82
2022-09-14T09:34:01.233Z,16.84
2022-09-14T09:35:00.368Z,16.84
2022-09-14T09:36:00.516Z,16.85
2022-09-14T09:37:00.669Z,16.86
2022-09-14T09:38:00.812Z,16.87
2022-09-14T09:39:04.971Z,16.88
2022-09-14T09:40:01.153Z,16.88
2022-09-14T09:41:01.240Z,16.89
2022-09-14T09:42:00.387Z,16.91
2022-09-14T09:43:00.531Z,16.92
2022-09-14T09:44:00.695Z,16.93
2022-09-14T09:45:02.603Z,16.96
2022-09-14T09:46:00.977Z,17
2022-09-14T09:47:01.223Z,17.02
2022-09-14T09:48:00.266Z,17.03
2022-09-14T09:49:00.431Z,17.05
2022-09-14T09:50:00.575Z,17.08
2022-09-14T09:51:00.708Z,17.09
2022-09-14T09:52:00.851Z,17.1
2022-09-14T09:53:05.999Z,17.07
2022-09-14T09:54:01.149Z,17.08
2022-09-14T09:55:00.337Z,17.09
2022-09-14T09:56:00.461Z,17.14
2022-09-14T09:57:00.612Z,17.16
2022-09-14T09:58:00.751Z,17.17
2022-09-14T09:59:00.885Z,17.17
2022-09-14T10:00:01.029Z,17.18
2022-09-14T10:01:01.345Z,17.19
2022-09-14T10:02:00.348Z,17.21
2022-09-14T10:03:00.444Z,17.22
2022-09-14T10:04:00.599Z,17.26
2022-09-14T10:05:00.745Z,17.29
2022-09-14T10:06:00.922Z,17.29
2022-09-14T10:07:01.043Z,17.29
2022-09-14T10:08:01.194Z,17.29
2022-09-14T10:09:00.346Z,17.29
2022-09-14T10:10:00.494Z,17.29
2022-09-14T10:11:00.673Z,17.3
2022-09-14T10:12:00.793Z,17.31
2022-09-14T10:13:00.943Z,17.32
2022-09-14T10:14:01.094Z,17.32
2022-09-14T10:15:01.248Z,17.31
2022-09-14T10:16:00.446Z,17.31
2022-09-14T10:17:00.528Z,17.33
2022-09-14T10:18:00.683Z,17.34
2022-09-14T10:19:00.831Z,17.33
2022-09-14T10:20:00.980Z,17.33
2022-09-14T10:21:01.151Z,17.34
2022-09-14T10:22:00.273Z,17.35
2022-09-14T10:23:00.415Z,17.36
2022-09-14T10:24:00.565Z,17.35
2022-09-14T10:25:00.713Z,17.35
2022-09-14T10:26:00.892Z,17.35
2022-09-14T10:27:01.017Z,17.35
2022-09-14T10:28:01.181Z,17.36
2022-09-14T10:29:00.321Z,17.36
2022-09-14T10:30:00.467Z,17.36
2022-09-14T10:31:00.746Z,17.35
2022-09-14T10:32:00.761Z,17.36
2022-09-14T10:33:00.909Z,17.37
2022-09-14T10:34:01.046Z,17.38
2022-09-14T10:35:01.203Z,17.37
2022-09-14T10:36:00.369Z,17.36
2022-09-14T10:37:00.508Z,17.35
2022-09-14T10:38:00.647Z,17.34
2022-09-14T10:39:00.800Z,17.35
2022-09-14T10:40:01.066Z,17.35
2022-09-14T10:41:01.127Z,17.32
2022-09-14T10:43:00.348Z,17.33
2022-09-14T10:44:00.495Z,17.35
2022-09-14T10:45:00.640Z,17.37
2022-09-14T10:46:00.879Z,17.38
2022-09-14T10:47:04.573Z,17.39
2022-09-14T10:48:01.096Z,17.39
2022-09-14T10:49:01.246Z,17.41
2022-09-14T10:50:00.396Z,17.4
2022-09-14T10:51:00.531Z,17.4
2022-09-14T10:52:00.685Z,17.4
2022-09-14T10:53:00.837Z,17.39
2022-09-14T10:54:01.041Z,17.41
2022-09-14T10:55:01.133Z,17.41
2022-09-14T10:56:00.277Z,17.41
2022-09-14T10:57:00.422Z,17.41
2022-09-14T10:58:00.593Z,17.4
2022-09-14T10:59:00.712Z,17.39
2022-09-14T11:00:00.861Z,17.4
2022-09-14T11:01:01.002Z,17.4
2022-09-14T11:02:01.323Z,17.39
2022-09-14T11:03:00.428Z,17.4
2022-09-14T11:04:00.437Z,17.41
2022-09-14T11:05:00.576Z,17.41
2022-09-14T11:06:00.721Z,17.4
2022-09-14T11:07:00.866Z,17.39
2022-09-14T11:08:01.024Z,17.39
2022-09-14T11:09:01.187Z,17.38
2022-09-14T11:10:00.297Z,17.41
2022-09-14T11:11:00.445Z,17.41
2022-09-14T11:12:00.601Z,17.38
2022-09-14T11:13:00.752Z,17.4
2022-09-14T11:14:00.915Z,17.43
2022-09-14T11:15:01.053Z,17.46
2022-09-14T11:16:01.298Z,17.5
2022-09-14T11:17:00.323Z,17.51
2022-09-14T11:18:00.469Z,17.52
2022-09-14T11:19:00.621Z,17.55
2022-09-14T11:20:00.791Z,17.58
2022-09-14T11:21:00.915Z,17.6
2022-09-14T11:22:01.055Z,17.55
2022-09-14T11:23:01.196Z,17.55
2022-09-14T11:24:00.344Z,17.55
2022-09-14T11:25:00.514Z,17.58
2022-09-14T11:26:00.642Z,17.56
2022-09-14T11:27:00.786Z,17.55
2022-09-14T11:28:00.945Z,17.58
2022-09-14T11:29:01.089Z,17.6
2022-09-14T11:30:01.265Z,17.63
2022-09-14T11:31:00.509Z,17.63
2022-09-14T11:32:19.794Z,17.67
2022-09-14T11:33:00.672Z,17.68
2022-09-14T11:34:00.822Z,17.69
2022-09-14T11:35:01.001Z,17.73
2022-09-14T11:36:01.128Z,17.75
2022-09-14T11:37:00.270Z,17.77
2022-09-14T11:38:00.436Z,17.8
2022-09-14T11:39:04.706Z,17.8
2022-09-14T11:40:00.747Z,17.8
2022-09-14T11:41:00.850Z,17.82
2022-09-14T11:42:01.005Z,17.85
2022-09-14T11:43:01.141Z,17.9
2022-09-14T11:44:00.295Z,17.94
2022-09-14T11:45:00.463Z,17.97
2022-09-14T11:46:00.635Z,17.95
2022-09-14T11:47:01.113Z,17.94
2022-09-14T11:48:00.906Z,17.94
2022-09-14T11:49:01.038Z,17.94
2022-09-14T11:50:01.211Z,17.95
2022-09-14T11:51:00.333Z,17.97
2022-09-14T11:52:00.486Z,17.99
2022-09-14T11:53:00.631Z,18.03
2022-09-14T11:54:00.802Z,18.05
2022-09-14T11:55:00.929Z,18.05
2022-09-14T11:56:01.085Z,18.04
2022-09-14T11:57:01.228Z,18.07
2022-09-14T11:58:00.366Z,18.09
2022-09-14T11:59:00.537Z,18.11
2022-09-14T12:00:00.656Z,18.12
2022-09-14T12:01:00.817Z,18.11
2022-09-14T12:02:00.965Z,18.14
2022-09-14T12:03:01.185Z,18.18
2022-09-14T12:04:00.387Z,18.21
2022-09-14T12:05:00.413Z,18.21
2022-09-14T12:06:00.571Z,18.2
2022-09-14T12:07:00.717Z,18.19
2022-09-14T12:08:00.893Z,18.17
2022-09-14T12:09:01.052Z,18.19
2022-09-14T12:10:01.160Z,18.19
2022-09-14T12:11:00.307Z,18.18
2022-09-14T12:12:00.451Z,18.15
2022-09-14T12:13:00.594Z,18.13
2022-09-14T12:14:00.758Z,18.12
2022-09-14T12:15:00.883Z,18.13
2022-09-14T12:16:01.098Z,18.13
2022-09-14T12:17:04.111Z,18.1
2022-09-14T12:18:00.322Z,18.08
2022-09-14T12:19:00.487Z,18.08
2022-09-14T12:20:00.612Z,18.11
2022-09-14T12:21:00.756Z,18.14
2022-09-14T12:22:00.907Z,18.14
2022-09-14T12:23:01.047Z,18.17
2022-09-14T12:24:01.224Z,18.19
2022-09-14T12:25:00.345Z,18.25
2022-09-14T12:26:00.486Z,18.29
2022-09-14T12:27:00.620Z,18.33
2022-09-14T12:28:00.759Z,18.37
2022-09-14T12:29:00.921Z,18.4
2022-09-14T12:30:01.083Z,18.46
2022-09-14T12:31:01.266Z,18.5
2022-09-14T12:32:00.385Z,18.51
2022-09-14T12:33:00.524Z,18.53
2022-09-14T12:34:00.689Z,18.54
2022-09-14T12:35:00.824Z,18.58
2022-09-14T12:36:00.965Z,18.59
2022-09-14T12:37:01.127Z,18.61
2022-09-14T12:38:00.263Z,18.61
2022-09-14T12:39:00.443Z,18.61
2022-09-14T12:40:00.630Z,18.59
2022-09-14T12:41:00.737Z,18.56
2022-09-14T12:42:00.885Z,18.53
2022-09-14T12:43:01.032Z,18.53
2022-09-14T12:44:01.190Z,18.54
2022-09-14T12:45:00.318Z,18.56
2022-09-14T12:46:00.534Z,18.59
2022-09-14T12:47:00.615Z,18.58
2022-09-14T12:48:00.764Z,18.61
2022-09-14T12:49:00.931Z,18.67
2022-09-14T12:50:01.094Z,18.62
2022-09-14T12:51:01.207Z,18.67
2022-09-14T12:52:00.354Z,18.66
2022-09-14T12:53:00.492Z,18.67
2022-09-14T12:54:00.647Z,18.69
2022-09-14T12:55:00.814Z,18.69
2022-09-14T12:56:00.931Z,18.69
2022-09-14T12:57:01.086Z,18.78
2022-09-14T12:58:01.229Z,18.86